Decatur, Indiana
Current Conditions -  °F | °C
As of 5:54 AM on Thursday 18 Dec 2014 (Local Time) from KFWA Reporting Station
Overcast Overcast  
Wind Chill: 22°   Ceiling: 1800
Heat Index: 27°   Visibility: 10mi
Dew Point: 22°   Wind: 5mph
Humidity: 81%   Direction: 280°W
Pressure: 30.25"   Gusts: NA
Location:  40.83°N, 84.92°W
Report Text: KFWA 181054Z 28004KT 10SM OVC018 M03/M06 A3025 RMK AO2 SLP255 T10281056
Loading
Personal Weather Stations






























Interactive Weather Map New forecast layout! Learn more

10-Day Weather Forecast

Advertisements
Track Severe Weather on mobile